sensor_id;sensor_type;location;lat;lon;timestamp;P1;durP1;ratioP1;P2;durP2;ratioP2
79284;SDS011;68734;50.452;11.636;2023-05-10T00:01:39;3.88;;;2.47;;
79284;SDS011;68734;50.452;11.636;2023-05-10T00:04:05;5.68;;;2.78;;
79284;SDS011;68734;50.452;11.636;2023-05-10T00:06:31;5.82;;;2.67;;
79284;SDS011;68734;50.452;11.636;2023-05-10T00:08:59;6.93;;;3.03;;
79284;SDS011;68734;50.452;11.636;2023-05-10T00:11:24;8.55;;;3.05;;
79284;SDS011;68734;50.452;11.636;2023-05-10T00:13:50;5.78;;;2.90;;
79284;SDS011;68734;50.452;11.636;2023-05-10T00:16:15;4.97;;;2.83;;
79284;SDS011;68734;50.452;11.636;2023-05-10T00:18:41;3.40;;;2.33;;
79284;SDS011;68734;50.452;11.636;2023-05-10T00:21:06;5.15;;;2.50;;
79284;SDS011;68734;50.452;11.636;2023-05-10T00:23:31;4.43;;;2.53;;
79284;SDS011;68734;50.452;11.636;2023-05-10T00:25:59;5.50;;;3.03;;
79284;SDS011;68734;50.452;11.636;2023-05-10T00:28:24;6.70;;;2.67;;
79284;SDS011;68734;50.452;11.636;2023-05-10T00:30:52;5.25;;;3.20;;
79284;SDS011;68734;50.452;11.636;2023-05-10T00:33:17;4.50;;;2.90;;
79284;SDS011;68734;50.452;11.636;2023-05-10T00:35:43;5.10;;;2.65;;
79284;SDS011;68734;50.452;11.636;2023-05-10T00:38:10;5.25;;;2.85;;
79284;SDS011;68734;50.452;11.636;2023-05-10T00:40:36;4.30;;;2.50;;
79284;SDS011;68734;50.452;11.636;2023-05-10T00:43:02;3.20;;;1.90;;
79284;SDS011;68734;50.452;11.636;2023-05-10T00:45:28;5.55;;;2.58;;
79284;SDS011;68734;50.452;11.636;2023-05-10T00:47:56;5.32;;;2.78;;
79284;SDS011;68734;50.452;11.636;2023-05-10T00:50:22;4.25;;;2.50;;
79284;SDS011;68734;50.452;11.636;2023-05-10T00:52:50;3.80;;;2.40;;
79284;SDS011;68734;50.452;11.636;2023-05-10T00:55:16;6.43;;;2.60;;
79284;SDS011;68734;50.452;11.636;2023-05-10T00:57:43;5.63;;;2.58;;
79284;SDS011;68734;50.452;11.636;2023-05-10T01:00:08;5.90;;;2.95;;
79284;SDS011;68734;50.452;11.636;2023-05-10T01:02:34;7.57;;;2.72;;
79284;SDS011;68734;50.452;11.636;2023-05-10T01:05:00;3.88;;;2.55;;
79284;SDS011;68734;50.452;11.636;2023-05-10T01:07:28;4.35;;;2.63;;
79284;SDS011;68734;50.452;11.636;2023-05-10T01:09:54;4.78;;;2.60;;
79284;SDS011;68734;50.452;11.636;2023-05-10T01:12:19;5.15;;;2.65;;
79284;SDS011;68734;50.452;11.636;2023-05-10T01:14:45;6.05;;;2.72;;
79284;SDS011;68734;50.452;11.636;2023-05-10T01:17:10;4.82;;;2.78;;
79284;SDS011;68734;50.452;11.636;2023-05-10T01:19:40;3.42;;;2.33;;
79284;SDS011;68734;50.452;11.636;2023-05-10T01:27:43;3.45;;;2.10;;
79284;SDS011;68734;50.452;11.636;2023-05-10T01:33:08;4.10;;;2.60;;
79284;SDS011;68734;50.452;11.636;2023-05-10T01:35:51;5.82;;;2.50;;
79284;SDS011;68734;50.452;11.636;2023-05-10T01:44:04;4.35;;;2.30;;
79284;SDS011;68734;50.452;11.636;2023-05-10T01:46:40;5.68;;;3.17;;
79284;SDS011;68734;50.452;11.636;2023-05-10T01:49:09;3.42;;;2.10;;
79284;SDS011;68734;50.452;11.636;2023-05-10T01:52:04;5.78;;;2.50;;
79284;SDS011;68734;50.452;11.636;2023-05-10T01:54:32;5.65;;;2.55;;
79284;SDS011;68734;50.452;11.636;2023-05-10T01:57:02;4.82;;;2.22;;
79284;SDS011;68734;50.452;11.636;2023-05-10T01:59:33;5.68;;;2.50;;
79284;SDS011;68734;50.452;11.636;2023-05-10T02:02:06;6.45;;;2.50;;
79284;SDS011;68734;50.452;11.636;2023-05-10T02:04:36;7.03;;;2.97;;
79284;SDS011;68734;50.452;11.636;2023-05-10T02:07:04;5.30;;;2.15;;
79284;SDS011;68734;50.452;11.636;2023-05-10T02:09:32;6.40;;;2.63;;
79284;SDS011;68734;50.452;11.636;2023-05-10T02:11:59;5.22;;;2.85;;
79284;SDS011;68734;50.452;11.636;2023-05-10T02:14:30;3.85;;;2.40;;
79284;SDS011;68734;50.452;11.636;2023-05-10T02:17:04;3.95;;;2.40;;
79284;SDS011;68734;50.452;11.636;2023-05-10T02:19:36;4.85;;;2.83;;
79284;SDS011;68734;50.452;11.636;2023-05-10T02:22:06;6.95;;;2.15;;
79284;SDS011;68734;50.452;11.636;2023-05-10T02:24:38;4.82;;;2.55;;
79284;SDS011;68734;50.452;11.636;2023-05-10T02:27:05;6.00;;;2.50;;
79284;SDS011;68734;50.452;11.636;2023-05-10T02:29:32;5.25;;;3.38;;
79284;SDS011;68734;50.452;11.636;2023-05-10T02:31:59;6.68;;;3.10;;
79284;SDS011;68734;50.452;11.636;2023-05-10T02:34:25;5.28;;;3.03;;
79284;SDS011;68734;50.452;11.636;2023-05-10T02:36:52;4.63;;;2.90;;
79284;SDS011;68734;50.452;11.636;2023-05-10T02:39:18;4.85;;;2.70;;
79284;SDS011;68734;50.452;11.636;2023-05-10T02:41:46;5.63;;;3.03;;
79284;SDS011;68734;50.452;11.636;2023-05-10T02:44:14;4.68;;;2.63;;
79284;SDS011;68734;50.452;11.636;2023-05-10T02:46:43;3.60;;;2.70;;
79284;SDS011;68734;50.452;11.636;2023-05-10T02:49:09;6.15;;;3.00;;
79284;SDS011;68734;50.452;11.636;2023-05-10T02:51:35;7.53;;;2.80;;
79284;SDS011;68734;50.452;11.636;2023-05-10T02:54:12;6.72;;;2.75;;
79284;SDS011;68734;50.452;11.636;2023-05-10T02:56:47;4.38;;;2.35;;
79284;SDS011;68734;50.452;11.636;2023-05-10T02:59:21;6.22;;;3.20;;
79284;SDS011;68734;50.452;11.636;2023-05-10T03:01:47;7.05;;;3.50;;
79284;SDS011;68734;50.452;11.636;2023-05-10T03:04:12;5.03;;;3.08;;
79284;SDS011;68734;50.452;11.636;2023-05-10T03:06:38;8.32;;;3.13;;
79284;SDS011;68734;50.452;11.636;2023-05-10T03:09:04;6.47;;;3.13;;
79284;SDS011;68734;50.452;11.636;2023-05-10T03:16:52;5.60;;;2.90;;
79284;SDS011;68734;50.452;11.636;2023-05-10T03:19:24;4.68;;;2.72;;
79284;SDS011;68734;50.452;11.636;2023-05-10T03:21:54;4.32;;;2.60;;
79284;SDS011;68734;50.452;11.636;2023-05-10T03:24:24;4.43;;;2.97;;
79284;SDS011;68734;50.452;11.636;2023-05-10T03:26:53;5.95;;;3.08;;
79284;SDS011;68734;50.452;11.636;2023-05-10T03:29:21;6.57;;;2.90;;
79284;SDS011;68734;50.452;11.636;2023-05-10T03:31:49;7.20;;;3.00;;
79284;SDS011;68734;50.452;11.636;2023-05-10T03:34:15;7.30;;;3.80;;
79284;SDS011;68734;50.452;11.636;2023-05-10T03:36:42;5.07;;;2.80;;
79284;SDS011;68734;50.452;11.636;2023-05-10T03:39:07;3.75;;;2.80;;
79284;SDS011;68734;50.452;11.636;2023-05-10T03:41:33;6.38;;;2.75;;
79284;SDS011;68734;50.452;11.636;2023-05-10T03:43:58;4.82;;;3.08;;
79284;SDS011;68734;50.452;11.636;2023-05-10T03:46:24;6.72;;;3.20;;
79284;SDS011;68734;50.452;11.636;2023-05-10T03:48:49;7.07;;;3.33;;
79284;SDS011;68734;50.452;11.636;2023-05-10T03:51:14;6.53;;;3.53;;
79284;SDS011;68734;50.452;11.636;2023-05-10T03:53:40;4.78;;;3.15;;
79284;SDS011;68734;50.452;11.636;2023-05-10T03:56:05;4.85;;;2.92;;
79284;SDS011;68734;50.452;11.636;2023-05-10T03:58:33;6.03;;;3.20;;
79284;SDS011;68734;50.452;11.636;2023-05-10T04:00:58;6.22;;;3.05;;
79284;SDS011;68734;50.452;11.636;2023-05-10T04:03:24;4.32;;;3.05;;
79284;SDS011;68734;50.452;11.636;2023-05-10T04:05:57;5.22;;;2.67;;
79284;SDS011;68734;50.452;11.636;2023-05-10T04:08:24;6.35;;;2.90;;
79284;SDS011;68734;50.452;11.636;2023-05-10T04:10:51;4.95;;;2.72;;
79284;SDS011;68734;50.452;11.636;2023-05-10T04:13:16;5.72;;;3.15;;
79284;SDS011;68734;50.452;11.636;2023-05-10T04:15:42;7.63;;;3.67;;
79284;SDS011;68734;50.452;11.636;2023-05-10T04:18:08;5.00;;;3.13;;
79284;SDS011;68734;50.452;11.636;2023-05-10T04:20:33;7.13;;;3.05;;
79284;SDS011;68734;50.452;11.636;2023-05-10T04:22:59;5.95;;;3.17;;
79284;SDS011;68734;50.452;11.636;2023-05-10T04:25:24;4.82;;;2.75;;
79284;SDS011;68734;50.452;11.636;2023-05-10T04:27:50;5.88;;;2.80;;
79284;SDS011;68734;50.452;11.636;2023-05-10T04:30:17;5.78;;;3.03;;
79284;SDS011;68734;50.452;11.636;2023-05-10T04:32:43;8.98;;;3.42;;
79284;SDS011;68734;50.452;11.636;2023-05-10T04:35:11;4.95;;;2.95;;
79284;SDS011;68734;50.452;11.636;2023-05-10T04:37:39;4.50;;;3.22;;
79284;SDS011;68734;50.452;11.636;2023-05-10T04:40:05;21.65;;;9.98;;
79284;SDS011;68734;50.452;11.636;2023-05-10T04:42:33;8.40;;;3.67;;
79284;SDS011;68734;50.452;11.636;2023-05-10T04:44:58;5.75;;;3.15;;
79284;SDS011;68734;50.452;11.636;2023-05-10T04:47:23;4.88;;;2.92;;
79284;SDS011;68734;50.452;11.636;2023-05-10T04:49:49;5.10;;;3.15;;
79284;SDS011;68734;50.452;11.636;2023-05-10T04:52:14;4.93;;;3.03;;
79284;SDS011;68734;50.452;11.636;2023-05-10T04:54:42;4.95;;;2.83;;
79284;SDS011;68734;50.452;11.636;2023-05-10T04:57:07;6.47;;;3.45;;
79284;SDS011;68734;50.452;11.636;2023-05-10T04:59:36;5.20;;;2.88;;
79284;SDS011;68734;50.452;11.636;2023-05-10T05:02:02;4.57;;;3.10;;
79284;SDS011;68734;50.452;11.636;2023-05-10T05:04:30;5.38;;;3.30;;
79284;SDS011;68734;50.452;11.636;2023-05-10T05:06:56;6.65;;;3.20;;
79284;SDS011;68734;50.452;11.636;2023-05-10T05:09:21;5.03;;;3.35;;
79284;SDS011;68734;50.452;11.636;2023-05-10T05:11:47;5.28;;;2.70;;
79284;SDS011;68734;50.452;11.636;2023-05-10T05:14:12;4.80;;;2.80;;
79284;SDS011;68734;50.452;11.636;2023-05-10T05:16:37;4.55;;;2.83;;
79284;SDS011;68734;50.452;11.636;2023-05-10T05:19:03;5.65;;;3.47;;
79284;SDS011;68734;50.452;11.636;2023-05-10T05:21:28;6.28;;;3.65;;
79284;SDS011;68734;50.452;11.636;2023-05-10T05:23:54;5.00;;;3.30;;
79284;SDS011;68734;50.452;11.636;2023-05-10T05:26:19;6.30;;;3.10;;
79284;SDS011;68734;50.452;11.636;2023-05-10T05:28:45;5.82;;;3.10;;
79284;SDS011;68734;50.452;11.636;2023-05-10T05:31:10;8.98;;;3.50;;
79284;SDS011;68734;50.452;11.636;2023-05-10T05:33:36;6.22;;;3.75;;
79284;SDS011;68734;50.452;11.636;2023-05-10T05:36:03;3.80;;;2.95;;
79284;SDS011;68734;50.452;11.636;2023-05-10T05:38:29;10.63;;;4.13;;
79284;SDS011;68734;50.452;11.636;2023-05-10T05:40:55;5.05;;;3.33;;
79284;SDS011;68734;50.452;11.636;2023-05-10T05:43:21;6.68;;;3.75;;
79284;SDS011;68734;50.452;11.636;2023-05-10T05:45:46;6.53;;;3.97;;
79284;SDS011;68734;50.452;11.636;2023-05-10T05:48:11;6.63;;;3.38;;
79284;SDS011;68734;50.452;11.636;2023-05-10T05:50:37;5.72;;;3.65;;
79284;SDS011;68734;50.452;11.636;2023-05-10T05:53:02;6.20;;;3.20;;
79284;SDS011;68734;50.452;11.636;2023-05-10T05:55:28;5.03;;;3.60;;
79284;SDS011;68734;50.452;11.636;2023-05-10T05:57:54;7.90;;;3.78;;
79284;SDS011;68734;50.452;11.636;2023-05-10T06:00:19;7.18;;;4.00;;
79284;SDS011;68734;50.452;11.636;2023-05-10T06:02:47;8.27;;;4.07;;
79284;SDS011;68734;50.452;11.636;2023-05-10T06:05:13;6.65;;;3.88;;
79284;SDS011;68734;50.452;11.636;2023-05-10T06:07:42;7.45;;;4.05;;
79284;SDS011;68734;50.452;11.636;2023-05-10T06:10:10;7.85;;;4.47;;
79284;SDS011;68734;50.452;11.636;2023-05-10T06:12:38;11.40;;;4.60;;
79284;SDS011;68734;50.452;11.636;2023-05-10T06:15:04;8.20;;;4.68;;
79284;SDS011;68734;50.452;11.636;2023-05-10T06:17:30;9.45;;;4.55;;
79284;SDS011;68734;50.452;11.636;2023-05-10T06:19:57;7.07;;;4.53;;
79284;SDS011;68734;50.452;11.636;2023-05-10T06:22:23;9.18;;;5.00;;
79284;SDS011;68734;50.452;11.636;2023-05-10T06:24:48;7.43;;;4.40;;
79284;SDS011;68734;50.452;11.636;2023-05-10T06:27:14;8.85;;;4.90;;
79284;SDS011;68734;50.452;11.636;2023-05-10T06:29:40;8.13;;;4.38;;
79284;SDS011;68734;50.452;11.636;2023-05-10T06:32:05;10.98;;;5.63;;
79284;SDS011;68734;50.452;11.636;2023-05-10T06:34:33;9.50;;;5.38;;
79284;SDS011;68734;50.452;11.636;2023-05-10T06:36:59;12.85;;;6.43;;
79284;SDS011;68734;50.452;11.636;2023-05-10T06:39:24;10.70;;;5.18;;
79284;SDS011;68734;50.452;11.636;2023-05-10T06:41:50;10.50;;;4.95;;
79284;SDS011;68734;50.452;11.636;2023-05-10T06:44:15;8.50;;;4.97;;
79284;SDS011;68734;50.452;11.636;2023-05-10T06:46:41;12.25;;;5.22;;
79284;SDS011;68734;50.452;11.636;2023-05-10T06:49:06;10.35;;;5.57;;
79284;SDS011;68734;50.452;11.636;2023-05-10T06:51:34;8.85;;;5.07;;
79284;SDS011;68734;50.452;11.636;2023-05-10T06:54:00;9.45;;;5.90;;
79284;SDS011;68734;50.452;11.636;2023-05-10T06:56:25;9.73;;;5.80;;
79284;SDS011;68734;50.452;11.636;2023-05-10T06:58:51;12.13;;;5.97;;
79284;SDS011;68734;50.452;11.636;2023-05-10T07:01:16;11.30;;;6.20;;
79284;SDS011;68734;50.452;11.636;2023-05-10T07:03:41;10.68;;;6.07;;
79284;SDS011;68734;50.452;11.636;2023-05-10T07:06:07;15.40;;;7.97;;
79284;SDS011;68734;50.452;11.636;2023-05-10T07:08:33;9.65;;;5.30;;
79284;SDS011;68734;50.452;11.636;2023-05-10T07:11:02;8.35;;;5.40;;
79284;SDS011;68734;50.452;11.636;2023-05-10T07:13:29;11.50;;;5.57;;
79284;SDS011;68734;50.452;11.636;2023-05-10T07:15:58;9.75;;;5.72;;
79284;SDS011;68734;50.452;11.636;2023-05-10T07:18:25;8.35;;;5.20;;
79284;SDS011;68734;50.452;11.636;2023-05-10T07:20:51;9.70;;;5.68;;
79284;SDS011;68734;50.452;11.636;2023-05-10T07:23:16;11.43;;;5.55;;
79284;SDS011;68734;50.452;11.636;2023-05-10T07:25:45;10.75;;;5.57;;
79284;SDS011;68734;50.452;11.636;2023-05-10T07:28:15;8.07;;;5.20;;
79284;SDS011;68734;50.452;11.636;2023-05-10T07:30:41;11.20;;;5.32;;
79284;SDS011;68734;50.452;11.636;2023-05-10T07:33:08;8.70;;;5.00;;
79284;SDS011;68734;50.452;11.636;2023-05-10T07:35:34;11.23;;;6.20;;
79284;SDS011;68734;50.452;11.636;2023-05-10T07:38:00;9.00;;;5.25;;
79284;SDS011;68734;50.452;11.636;2023-05-10T07:40:26;8.23;;;4.93;;
79284;SDS011;68734;50.452;11.636;2023-05-10T07:42:51;10.23;;;4.80;;
79284;SDS011;68734;50.452;11.636;2023-05-10T07:45:17;13.00;;;5.45;;
79284;SDS011;68734;50.452;11.636;2023-05-10T07:47:43;12.05;;;5.45;;
79284;SDS011;68734;50.452;11.636;2023-05-10T07:50:08;8.57;;;5.03;;
79284;SDS011;68734;50.452;11.636;2023-05-10T07:52:36;8.63;;;4.72;;
79284;SDS011;68734;50.452;11.636;2023-05-10T07:55:01;9.93;;;5.30;;
79284;SDS011;68734;50.452;11.636;2023-05-10T07:57:29;10.30;;;6.15;;
79284;SDS011;68734;50.452;11.636;2023-05-10T07:59:55;9.98;;;5.43;;
79284;SDS011;68734;50.452;11.636;2023-05-10T08:02:21;11.45;;;5.70;;
79284;SDS011;68734;50.452;11.636;2023-05-10T08:04:46;10.95;;;5.13;;
79284;SDS011;68734;50.452;11.636;2023-05-10T08:07:12;8.52;;;4.72;;
79284;SDS011;68734;50.452;11.636;2023-05-10T08:09:37;7.78;;;4.40;;
79284;SDS011;68734;50.452;11.636;2023-05-10T08:12:02;7.63;;;4.47;;
79284;SDS011;68734;50.452;11.636;2023-05-10T08:14:28;8.98;;;3.60;;
79284;SDS011;68734;50.452;11.636;2023-05-10T08:16:54;6.45;;;3.63;;
79284;SDS011;68734;50.452;11.636;2023-05-10T08:19:20;5.53;;;3.30;;
79284;SDS011;68734;50.452;11.636;2023-05-10T08:21:46;6.40;;;3.45;;
79284;SDS011;68734;50.452;11.636;2023-05-10T08:24:12;4.78;;;3.25;;
79284;SDS011;68734;50.452;11.636;2023-05-10T08:26:38;3.63;;;2.05;;
79284;SDS011;68734;50.452;11.636;2023-05-10T08:29:03;4.13;;;1.70;;
79284;SDS011;68734;50.452;11.636;2023-05-10T08:31:29;2.13;;;1.40;;
79284;SDS011;68734;50.452;11.636;2023-05-10T08:33:54;2.80;;;1.52;;
79284;SDS011;68734;50.452;11.636;2023-05-10T08:36:20;1.52;;;1.10;;
79284;SDS011;68734;50.452;11.636;2023-05-10T08:38:53;1.85;;;1.02;;
79284;SDS011;68734;50.452;11.636;2023-05-10T08:41:21;1.65;;;0.90;;
79284;SDS011;68734;50.452;11.636;2023-05-10T08:43:53;1.75;;;0.90;;
79284;SDS011;68734;50.452;11.636;2023-05-10T08:46:19;1.40;;;0.82;;
79284;SDS011;68734;50.452;11.636;2023-05-10T08:48:47;1.52;;;0.90;;
79284;SDS011;68734;50.452;11.636;2023-05-10T08:51:17;1.55;;;1.20;;
79284;SDS011;68734;50.452;11.636;2023-05-10T08:53:46;2.25;;;1.27;;
79284;SDS011;68734;50.452;11.636;2023-05-10T08:56:12;4.30;;;2.10;;
79284;SDS011;68734;50.452;11.636;2023-05-10T08:58:38;6.95;;;3.00;;
79284;SDS011;68734;50.452;11.636;2023-05-10T09:01:05;7.32;;;3.20;;
79284;SDS011;68734;50.452;11.636;2023-05-10T09:03:32;3.53;;;1.80;;
79284;SDS011;68734;50.452;11.636;2023-05-10T09:05:58;5.80;;;2.10;;
79284;SDS011;68734;50.452;11.636;2023-05-10T09:08:23;5.95;;;2.42;;
79284;SDS011;68734;50.452;11.636;2023-05-10T09:10:54;17.38;;;7.22;;
79284;SDS011;68734;50.452;11.636;2023-05-10T09:13:20;9.05;;;4.35;;
79284;SDS011;68734;50.452;11.636;2023-05-10T09:15:47;3.53;;;1.42;;
79284;SDS011;68734;50.452;11.636;2023-05-10T09:18:12;7.63;;;1.67;;
79284;SDS011;68734;50.452;11.636;2023-05-10T09:20:38;7.43;;;2.90;;
79284;SDS011;68734;50.452;11.636;2023-05-10T09:23:04;4.88;;;2.30;;
79284;SDS011;68734;50.452;11.636;2023-05-10T09:25:30;7.18;;;3.22;;
79284;SDS011;68734;50.452;11.636;2023-05-10T09:27:58;4.68;;;3.03;;
79284;SDS011;68734;50.452;11.636;2023-05-10T09:30:24;4.30;;;2.10;;
79284;SDS011;68734;50.452;11.636;2023-05-10T09:32:51;1.50;;;0.90;;
79284;SDS011;68734;50.452;11.636;2023-05-10T09:35:18;1.38;;;1.08;;
79284;SDS011;68734;50.452;11.636;2023-05-10T09:37:46;1.15;;;0.68;;
79284;SDS011;68734;50.452;11.636;2023-05-10T09:40:17;0.88;;;0.70;;
79284;SDS011;68734;50.452;11.636;2023-05-10T09:42:58;1.17;;;0.80;;
79284;SDS011;68734;50.452;11.636;2023-05-10T09:45:35;1.67;;;1.05;;
79284;SDS011;68734;50.452;11.636;2023-05-10T09:48:02;1.05;;;0.80;;
79284;SDS011;68734;50.452;11.636;2023-05-10T09:50:28;1.50;;;1.13;;
79284;SDS011;68734;50.452;11.636;2023-05-10T09:52:58;2.00;;;1.10;;
79284;SDS011;68734;50.452;11.636;2023-05-10T09:55:44;1.38;;;1.00;;
79284;SDS011;68734;50.452;11.636;2023-05-10T09:58:15;1.85;;;1.08;;
79284;SDS011;68734;50.452;11.636;2023-05-10T10:00:41;1.90;;;1.10;;
79284;SDS011;68734;50.452;11.636;2023-05-10T10:03:18;2.92;;;1.35;;
79284;SDS011;68734;50.452;11.636;2023-05-10T10:05:46;1.65;;;1.05;;
79284;SDS011;68734;50.452;11.636;2023-05-10T10:08:12;2.42;;;1.20;;
79284;SDS011;68734;50.452;11.636;2023-05-10T10:10:39;1.90;;;1.10;;
79284;SDS011;68734;50.452;11.636;2023-05-10T10:13:05;2.20;;;1.55;;
79284;SDS011;68734;50.452;11.636;2023-05-10T10:15:31;1.83;;;1.40;;
79284;SDS011;68734;50.452;11.636;2023-05-10T10:17:58;1.67;;;1.02;;
79284;SDS011;68734;50.452;11.636;2023-05-10T10:20:28;1.42;;;1.05;;
79284;SDS011;68734;50.452;11.636;2023-05-10T10:25:21;1.50;;;1.07;;
79284;SDS011;68734;50.452;11.636;2023-05-10T10:30:35;1.27;;;0.82;;
79284;SDS011;68734;50.452;11.636;2023-05-10T10:36:06;1.30;;;0.90;;
79284;SDS011;68734;50.452;11.636;2023-05-10T10:38:35;1.90;;;0.80;;
79284;SDS011;68734;50.452;11.636;2023-05-10T10:41:10;1.75;;;1.00;;
79284;SDS011;68734;50.452;11.636;2023-05-10T10:44:22;1.15;;;0.70;;
79284;SDS011;68734;50.452;11.636;2023-05-10T10:54:57;1.30;;;0.95;;
79284;SDS011;68734;50.452;11.636;2023-05-10T10:57:25;1.63;;;0.70;;
79284;SDS011;68734;50.452;11.636;2023-05-10T10:59:51;1.27;;;0.82;;
79284;SDS011;68734;50.452;11.636;2023-05-10T11:07:59;1.73;;;0.90;;
79284;SDS011;68734;50.452;11.636;2023-05-10T11:10:27;1.40;;;1.00;;
79284;SDS011;68734;50.452;11.636;2023-05-10T11:13:00;1.70;;;0.93;;
79284;SDS011;68734;50.452;11.636;2023-05-10T11:15:36;1.55;;;0.90;;
79284;SDS011;68734;50.452;11.636;2023-05-10T11:18:19;1.67;;;1.13;;
79284;SDS011;68734;50.452;11.636;2023-05-10T11:20:56;1.30;;;0.90;;
79284;SDS011;68734;50.452;11.636;2023-05-10T11:26:12;2.85;;;1.50;;
79284;SDS011;68734;50.452;11.636;2023-05-10T11:28:44;1.60;;;1.13;;
79284;SDS011;68734;50.452;11.636;2023-05-10T11:31:13;1.40;;;0.95;;
79284;SDS011;68734;50.452;11.636;2023-05-10T11:33:43;3.53;;;1.35;;
79284;SDS011;68734;50.452;11.636;2023-05-10T11:36:17;1.27;;;0.98;;
79284;SDS011;68734;50.452;11.636;2023-05-10T11:38:44;1.75;;;1.00;;
79284;SDS011;68734;50.452;11.636;2023-05-10T11:41:13;1.60;;;1.05;;
79284;SDS011;68734;50.452;11.636;2023-05-10T11:43:39;1.55;;;0.90;;
79284;SDS011;68734;50.452;11.636;2023-05-10T11:46:07;1.52;;;0.90;;
79284;SDS011;68734;50.452;11.636;2023-05-10T11:48:35;1.40;;;1.00;;
79284;SDS011;68734;50.452;11.636;2023-05-10T11:51:01;1.00;;;0.90;;
79284;SDS011;68734;50.452;11.636;2023-05-10T11:53:31;0.90;;;0.70;;
79284;SDS011;68734;50.452;11.636;2023-05-10T11:56:07;1.30;;;0.70;;
79284;SDS011;68734;50.452;11.636;2023-05-10T11:58:36;0.55;;;0.40;;
79284;SDS011;68734;50.452;11.636;2023-05-10T12:01:03;1.58;;;0.70;;
79284;SDS011;68734;50.452;11.636;2023-05-10T12:03:32;1.00;;;0.65;;
79284;SDS011;68734;50.452;11.636;2023-05-10T12:05:58;1.05;;;0.60;;
79284;SDS011;68734;50.452;11.636;2023-05-10T12:08:28;3.42;;;0.77;;
79284;SDS011;68734;50.452;11.636;2023-05-10T12:11:04;3.03;;;1.00;;
79284;SDS011;68734;50.452;11.636;2023-05-10T12:13:31;1.38;;;0.82;;
79284;SDS011;68734;50.452;11.636;2023-05-10T12:15:57;1.90;;;0.77;;
79284;SDS011;68734;50.452;11.636;2023-05-10T12:18:23;1.13;;;0.68;;
79284;SDS011;68734;50.452;11.636;2023-05-10T12:20:53;0.60;;;0.50;;
79284;SDS011;68734;50.452;11.636;2023-05-10T12:23:28;1.20;;;0.70;;
79284;SDS011;68734;50.452;11.636;2023-05-10T12:26:01;0.93;;;0.68;;
79284;SDS011;68734;50.452;11.636;2023-05-10T12:28:30;0.90;;;0.60;;
79284;SDS011;68734;50.452;11.636;2023-05-10T12:30:57;1.13;;;0.80;;
79284;SDS011;68734;50.452;11.636;2023-05-10T12:33:23;0.85;;;0.60;;
79284;SDS011;68734;50.452;11.636;2023-05-10T12:35:52;0.80;;;0.63;;
79284;SDS011;68734;50.452;11.636;2023-05-10T12:41:04;1.25;;;0.70;;
79284;SDS011;68734;50.452;11.636;2023-05-10T12:43:31;2.25;;;0.80;;
79284;SDS011;68734;50.452;11.636;2023-05-10T12:45:57;0.75;;;0.57;;
79284;SDS011;68734;50.452;11.636;2023-05-10T12:48:23;0.93;;;0.60;;
79284;SDS011;68734;50.452;11.636;2023-05-10T12:50:51;2.40;;;1.00;;
79284;SDS011;68734;50.452;11.636;2023-05-10T12:53:16;2.03;;;0.70;;
79284;SDS011;68734;50.452;11.636;2023-05-10T12:55:45;1.15;;;0.63;;
79284;SDS011;68734;50.452;11.636;2023-05-10T12:58:10;0.70;;;0.50;;
79284;SDS011;68734;50.452;11.636;2023-05-10T13:00:36;1.65;;;0.50;;
79284;SDS011;68734;50.452;11.636;2023-05-10T13:03:03;1.23;;;0.63;;
79284;SDS011;68734;50.452;11.636;2023-05-10T13:05:34;2.15;;;0.57;;
79284;SDS011;68734;50.452;11.636;2023-05-10T13:08:00;1.45;;;0.60;;
79284;SDS011;68734;50.452;11.636;2023-05-10T13:10:31;0.60;;;0.40;;
79284;SDS011;68734;50.452;11.636;2023-05-10T13:12:57;2.83;;;0.80;;
79284;SDS011;68734;50.452;11.636;2023-05-10T13:15:25;1.65;;;0.55;;
79284;SDS011;68734;50.452;11.636;2023-05-10T13:17:52;1.65;;;0.60;;
79284;SDS011;68734;50.452;11.636;2023-05-10T13:20:18;1.15;;;0.68;;
79284;SDS011;68734;50.452;11.636;2023-05-10T13:22:44;1.25;;;0.70;;
79284;SDS011;68734;50.452;11.636;2023-05-10T13:25:12;0.68;;;0.60;;
79284;SDS011;68734;50.452;11.636;2023-05-10T13:27:38;1.83;;;0.70;;
79284;SDS011;68734;50.452;11.636;2023-05-10T13:30:04;1.50;;;1.00;;
79284;SDS011;68734;50.452;11.636;2023-05-10T13:32:30;1.98;;;1.10;;
79284;SDS011;68734;50.452;11.636;2023-05-10T13:34:56;2.65;;;1.88;;
79284;SDS011;68734;50.452;11.636;2023-05-10T13:37:24;1.20;;;1.10;;
79284;SDS011;68734;50.452;11.636;2023-05-10T13:39:49;1.92;;;1.20;;
79284;SDS011;68734;50.452;11.636;2023-05-10T13:42:15;2.17;;;1.23;;
79284;SDS011;68734;50.452;11.636;2023-05-10T13:44:42;1.70;;;1.10;;
79284;SDS011;68734;50.452;11.636;2023-05-10T13:47:08;1.90;;;1.00;;
79284;SDS011;68734;50.452;11.636;2023-05-10T13:49:33;2.13;;;1.15;;
79284;SDS011;68734;50.452;11.636;2023-05-10T13:51:59;9.43;;;2.80;;
79284;SDS011;68734;50.452;11.636;2023-05-10T13:54:31;4.07;;;1.58;;
79284;SDS011;68734;50.452;11.636;2023-05-10T13:56:57;1.55;;;0.90;;
79284;SDS011;68734;50.452;11.636;2023-05-10T13:59:22;1.52;;;1.10;;
79284;SDS011;68734;50.452;11.636;2023-05-10T14:01:48;2.97;;;1.23;;
79284;SDS011;68734;50.452;11.636;2023-05-10T14:04:13;7.68;;;1.13;;
79284;SDS011;68734;50.452;11.636;2023-05-10T14:06:39;1.52;;;0.93;;
79284;SDS011;68734;50.452;11.636;2023-05-10T14:09:04;2.13;;;0.80;;
79284;SDS011;68734;50.452;11.636;2023-05-10T14:11:30;2.70;;;0.95;;
79284;SDS011;68734;50.452;11.636;2023-05-10T14:13:55;1.35;;;0.90;;
79284;SDS011;68734;50.452;11.636;2023-05-10T14:16:20;1.05;;;0.73;;
79284;SDS011;68734;50.452;11.636;2023-05-10T14:18:46;1.95;;;1.20;;
79284;SDS011;68734;50.452;11.636;2023-05-10T14:21:12;0.93;;;0.63;;
79284;SDS011;68734;50.452;11.636;2023-05-10T14:23:37;1.58;;;0.80;;
79284;SDS011;68734;50.452;11.636;2023-05-10T14:26:03;1.17;;;0.90;;
79284;SDS011;68734;50.452;11.636;2023-05-10T14:28:29;1.40;;;0.85;;
79284;SDS011;68734;50.452;11.636;2023-05-10T14:30:57;1.67;;;0.90;;
79284;SDS011;68734;50.452;11.636;2023-05-10T14:33:24;1.05;;;0.73;;
79284;SDS011;68734;50.452;11.636;2023-05-10T14:35:50;1.35;;;0.82;;
79284;SDS011;68734;50.452;11.636;2023-05-10T14:38:20;1.60;;;0.70;;
79284;SDS011;68734;50.452;11.636;2023-05-10T14:40:45;1.40;;;0.70;;
79284;SDS011;68734;50.452;11.636;2023-05-10T14:43:11;1.02;;;0.77;;
79284;SDS011;68734;50.452;11.636;2023-05-10T14:45:36;0.98;;;0.70;;
79284;SDS011;68734;50.452;11.636;2023-05-10T14:48:04;1.42;;;1.17;;
79284;SDS011;68734;50.452;11.636;2023-05-10T14:50:36;0.68;;;0.65;;
79284;SDS011;68734;50.452;11.636;2023-05-10T14:53:01;1.63;;;1.05;;
79284;SDS011;68734;50.452;11.636;2023-05-10T14:55:27;2.05;;;1.30;;
79284;SDS011;68734;50.452;11.636;2023-05-10T14:57:52;3.42;;;1.60;;
79284;SDS011;68734;50.452;11.636;2023-05-10T15:00:21;2.92;;;1.88;;
79284;SDS011;68734;50.452;11.636;2023-05-10T15:02:46;2.53;;;1.52;;
79284;SDS011;68734;50.452;11.636;2023-05-10T15:05:13;2.17;;;1.50;;
79284;SDS011;68734;50.452;11.636;2023-05-10T15:07:39;3.15;;;1.35;;
79284;SDS011;68734;50.452;11.636;2023-05-10T15:10:05;2.60;;;1.17;;
79284;SDS011;68734;50.452;11.636;2023-05-10T15:12:31;3.47;;;1.45;;
79284;SDS011;68734;50.452;11.636;2023-05-10T15:14:58;4.15;;;1.98;;
79284;SDS011;68734;50.452;11.636;2023-05-10T15:17:24;2.22;;;1.40;;
79284;SDS011;68734;50.452;11.636;2023-05-10T15:19:49;3.50;;;1.73;;
79284;SDS011;68734;50.452;11.636;2023-05-10T15:22:15;2.35;;;1.70;;